Time;durP1;ratioP1;P1;durP2;ratioP2;P2;SDS_P1;SDS_P2;PMS_P1;PMS_P2;Temp;Humidity;BMP_temperature;BMP_pressure;BME280_temperature;BME280_humidity;BME280_pressure;Samples;Min_cycle;Max_cycle;Signal;HPM_P1;HPM_P2
2021/03/13 00:00:44;;;;;;;;;;;;;;;20.93;47.28;99692.28;2085734;28;3730;-74
2021/03/13 00:01:45;;;;;;;;;;;;;;;20.94;47.32;99696.75;2086236;28;4004;-75
2021/03/13 00:02:46;;;;;;;;;;;;;;;20.93;47.54;99697.97;2088755;28;2565;-74
2021/03/13 00:03:47;;;;;;;;;;;;;;;20.94;47.51;99691.06;2087837;28;1817;-74
2021/03/13 00:04:47;;;;;;;;;;;;;;;20.94;47.49;99699.59;2088999;28;1544;-74
2021/03/13 00:05:48;;;;;;;;;;;;;;;20.94;47.51;99693.91;2088012;28;1898;-74
2021/03/13 00:06:49;;;;;;;;;;;;;;;20.93;47.47;99693.09;2086639;28;3499;-73
2021/03/13 00:07:49;;;;;;;;;;;;;;;20.94;47.56;99693.91;2088037;28;2000;-73
2021/03/13 00:08:50;;;;;;;;;;;;;;;20.94;47.60;99699.59;2087867;28;1799;-73
2021/03/13 00:09:51;;;;;;;;;;;;;;;20.94;47.53;99694.75;2087881;28;1862;-74
2021/03/13 00:10:52;;;;;;;;;;;;;;;20.95;47.68;99704.09;2088604;28;1617;-74
2021/03/13 00:11:53;;;;;;;;;;;;;;;20.94;47.79;99700.44;2086566;28;1894;-74
2021/03/13 00:12:54;;;;;;;;;;;;;;;20.95;47.63;99704.94;2089771;28;1886;-74
2021/03/13 00:13:55;;;;;;;;;;;;;;;20.95;47.88;99696.41;2089375;28;1981;-73
2021/03/13 00:14:55;;;;;;;;;;;;;;;20.95;47.63;99704.94;2091939;28;1934;-74
2021/03/13 00:15:56;;;;;;;;;;;;;;;20.97;48.01;99707.38;2087834;28;1526;-74
2021/03/13 00:16:57;;;;;;;;;;;;;;;20.96;47.71;99703.72;2088514;28;2058;-74
2021/03/13 00:17:58;;;;;;;;;;;;;;;20.97;47.75;99698.84;2083636;28;1154;-74
2021/03/13 00:18:59;;;;;;;;;;;;;;;20.97;47.81;99693.97;2088630;28;1842;-74
2021/03/13 00:20:00;;;;;;;;;;;;;;;20.97;47.81;99701.69;2086596;28;1378;-73
2021/03/13 00:21:00;;;;;;;;;;;;;;;20.97;47.81;99698.84;2088072;28;1123;-75
2021/03/13 00:22:01;;;;;;;;;;;;;;;20.97;47.86;99696.00;2079766;28;1231;-76
2021/03/13 00:23:02;;;;;;;;;;;;;;;20.97;47.92;99710.22;2077971;28;1639;-73
2021/03/13 00:24:03;;;;;;;;;;;;;;;20.96;47.80;99700.88;2088352;28;1087;-77
2021/03/13 00:25:03;;;;;;;;;;;;;;;20.96;48.01;99700.06;2088642;28;1204;-77
2021/03/13 00:26:04;;;;;;;;;;;;;;;20.98;47.93;99700.47;2087886;28;1874;-78
2021/03/13 00:27:05;;;;;;;;;;;;;;;20.97;47.83;99696.00;2088760;28;1221;-77
2021/03/13 00:28:06;;;;;;;;;;;;;;;20.97;48.03;99705.34;2088162;28;1713;-77
2021/03/13 00:29:07;;;;;;;;;;;;;;;20.97;48.03;99701.69;2087310;28;1795;-77
2021/03/13 00:30:07;;;;;;;;;;;;;;;20.97;48.09;99701.69;2087242;28;3477;-76
2021/03/13 00:31:08;;;;;;;;;;;;;;;20.97;47.92;99699.66;2088230;28;1790;-75
2021/03/13 00:32:09;;;;;;;;;;;;;;;20.97;48.06;99693.97;2088493;28;1494;-76
2021/03/13 00:33:10;;;;;;;;;;;;;;;20.98;48.06;99700.47;2088189;28;1784;-76
2021/03/13 00:34:11;;;;;;;;;;;;;;;20.98;47.93;99706.16;2088529;28;1918;-76
2021/03/13 00:35:12;;;;;;;;;;;;;;;20.98;47.95;99700.47;2078870;28;1081;-77
2021/03/13 00:36:13;;;;;;;;;;;;;;;20.98;48.00;99694.78;2078876;28;1711;-76
2021/03/13 00:37:14;;;;;;;;;;;;;;;20.97;48.08;99693.97;2080032;28;1184;-76
2021/03/13 00:38:16;;;;;;;;;;;;;;;20.97;48.01;99699.66;2087618;28;1171;-76
2021/03/13 00:39:16;;;;;;;;;;;;;;;20.97;48.06;99699.66;2089211;28;1768;-76
2021/03/13 00:40:17;;;;;;;;;;;;;;;20.97;48.04;99693.97;2089491;28;2046;-76
2021/03/13 00:41:18;;;;;;;;;;;;;;;20.97;48.09;99690.31;2089291;28;1785;-75
2021/03/13 00:42:19;;;;;;;;;;;;;;;20.98;48.02;99706.16;2090075;28;1723;-75
2021/03/13 00:43:19;;;;;;;;;;;;;;;20.97;48.18;99693.16;2090101;28;1471;-75
2021/03/13 00:44:20;;;;;;;;;;;;;;;20.97;48.10;99699.66;2089692;28;1775;-75
2021/03/13 00:45:21;;;;;;;;;;;;;;;20.98;48.22;99700.47;2089749;28;1650;-75
2021/03/13 00:46:22;;;;;;;;;;;;;;;20.97;48.07;99693.97;2080366;28;1701;-72
2021/03/13 00:47:23;;;;;;;;;;;;;;;20.98;48.07;99698.47;2078263;28;2039;-72
2021/03/13 00:48:24;;;;;;;;;;;;;;;20.99;48.15;99699.28;2088008;28;1483;-72
2021/03/13 00:49:24;;;;;;;;;;;;;;;20.98;48.37;99689.09;2089785;28;1016;-72
2021/03/13 00:50:25;;;;;;;;;;;;;;;20.98;48.36;99694.78;2091173;28;1192;-71
2021/03/13 00:51:26;;;;;;;;;;;;;;;20.99;48.34;99699.28;2091970;28;1310;-74
2021/03/13 00:52:27;;;;;;;;;;;;;;;20.98;48.23;99692.78;2087504;28;1728;-73
2021/03/13 00:53:28;;;;;;;;;;;;;;;20.99;48.50;99702.94;2090168;28;2058;-72
2021/03/13 00:54:28;;;;;;;;;;;;;;;20.99;48.26;99702.13;2087900;28;1910;-71
2021/03/13 00:55:29;;;;;;;;;;;;;;;20.99;48.32;99702.94;2084876;28;1161;-72
2021/03/13 00:56:30;;;;;;;;;;;;;;;20.99;48.47;99704.97;2089746;28;1656;-73
2021/03/13 00:57:30;;;;;;;;;;;;;;;20.99;48.36;99702.94;2091062;28;1121;-72
2021/03/13 00:58:31;;;;;;;;;;;;;;;21.00;48.60;99709.44;2090873;28;1077;-72
2021/03/13 00:59:32;;;;;;;;;;;;;;;20.99;48.37;99697.25;2090815;28;1044;-72
2021/03/13 01:00:33;;;;;;;;;;;;;;;20.99;48.45;99697.25;2091111;28;1121;-72
2021/03/13 01:01:33;;;;;;;;;;;;;;;20.99;48.47;99696.44;2089557;28;2134;-73
2021/03/13 01:02:34;;;;;;;;;;;;;;;20.99;48.71;99693.59;2090266;28;1151;-72
2021/03/13 01:03:35;;;;;;;;;;;;;;;21.00;48.59;99700.94;2091151;28;1223;-72
2021/03/13 01:04:36;;;;;;;;;;;;;;;20.99;48.67;99696.44;2091202;28;1412;-77
2021/03/13 01:05:37;;;;;;;;;;;;;;;20.99;48.59;99691.56;2091347;28;1125;-73
2021/03/13 01:06:38;;;;;;;;;;;;;;;21.01;48.71;99708.28;2090707;28;1814;-72
2021/03/13 01:07:38;;;;;;;;;;;;;;;21.03;48.93;99694.47;2091226;28;1051;-75
2021/03/13 01:08:39;;;;;;;;;;;;;;;21.02;48.95;99692.84;2090725;28;1749;-73
2021/03/13 01:09:40;;;;;;;;;;;;;;;21.02;48.93;99695.69;2090499;28;2149;-72
2021/03/13 01:10:40;;;;;;;;;;;;;;;21.02;48.92;99701.38;2090922;28;1177;-72
2021/03/13 01:11:41;;;;;;;;;;;;;;;21.01;48.87;99700.56;2087938;28;1033;-74
2021/03/13 01:12:42;;;;;;;;;;;;;;;21.02;49.01;99702.19;2091314;28;1100;-72
2021/03/13 01:13:43;;;;;;;;;;;;;;;21.02;48.94;99692.84;2088525;28;1975;-74
2021/03/13 01:14:43;;;;;;;;;;;;;;;21.02;49.08;99696.50;2091035;28;1432;-74
2021/03/13 01:15:44;;;;;;;;;;;;;;;21.02;49.02;99696.50;2091367;28;1921;-74
2021/03/13 01:16:45;;;;;;;;;;;;;;;21.02;49.00;99690.81;2090157;28;2094;-74
2021/03/13 01:17:46;;;;;;;;;;;;;;;21.01;49.20;99686.34;2089624;28;1811;-74
2021/03/13 01:18:47;;;;;;;;;;;;;;;21.02;49.10;99690.81;2091587;28;1278;-74
2021/03/13 01:19:48;;;;;;;;;;;;;;;21.01;49.17;99689.19;2091387;28;1676;-74
2021/03/13 01:20:49;;;;;;;;;;;;;;;21.01;49.04;99692.03;2092006;28;1288;-74
2021/03/13 01:21:50;;;;;;;;;;;;;;;21.03;49.09;99700.16;2090841;28;1748;-73
2021/03/13 01:22:51;;;;;;;;;;;;;;;21.02;49.08;99699.34;2090739;28;1712;-72
2021/03/13 01:23:52;;;;;;;;;;;;;;;21.02;49.29;99692.84;2091018;28;1707;-72
2021/03/13 01:24:53;;;;;;;;;;;;;;;21.02;49.11;99690.81;2090075;28;1843;-72
2021/03/13 01:25:53;;;;;;;;;;;;;;;21.03;49.42;99691.63;2090740;28;1862;-74
2021/03/13 01:26:54;;;;;;;;;;;;;;;21.03;49.44;99697.31;2091335;28;1115;-73
2021/03/13 01:27:55;;;;;;;;;;;;;;;21.03;49.35;99691.63;2090210;28;1697;-73
2021/03/13 01:28:56;;;;;;;;;;;;;;;21.03;49.35;99686.75;2090697;28;2435;-73
2021/03/13 01:29:56;;;;;;;;;;;;;;;21.02;49.28;99692.84;2091184;28;1325;-73
2021/03/13 01:30:57;;;;;;;;;;;;;;;21.03;49.39;99694.47;2091524;28;1227;-73
2021/03/13 01:32:03;;;;;;;;;;;;;;;21.02;49.24;99696.50;2091645;28;1198;-73
2021/03/13 01:33:04;;;;;;;;;;;;;;;21.01;49.39;99692.03;2090980;28;1712;-73
2021/03/13 01:34:04;;;;;;;;;;;;;;;21.02;49.44;99690.00;2091151;28;1971;-73
2021/03/13 01:35:05;;;;;;;;;;;;;;;21.02;49.36;99684.31;2090920;28;1634;-72
2021/03/13 01:36:06;;;;;;;;;;;;;;;21.01;49.37;99691.22;2090990;28;1317;-72
2021/03/13 01:37:07;;;;;;;;;;;;;;;21.02;49.37;99681.47;2090252;28;1839;-71
2021/03/13 01:38:07;;;;;;;;;;;;;;;21.01;49.29;99683.50;2090675;28;1704;-71
2021/03/13 01:39:08;;;;;;;;;;;;;;;21.03;49.39;99688.78;2091348;28;1119;-71
2021/03/13 01:40:10;;;;;;;;;;;;;;;21.01;49.27;99683.50;2091078;28;1072;-72
2021/03/13 01:41:11;;;;;;;;;;;;;;;21.03;49.34;99691.63;2090012;28;1721;-72
2021/03/13 01:42:12;;;;;;;;;;;;;;;21.02;49.45;99678.63;2090717;28;1768;-72
2021/03/13 01:43:13;;;;;;;;;;;;;;;21.02;49.45;99690.00;2090805;28;1103;-72
2021/03/13 01:44:14;;;;;;;;;;;;;;;21.03;49.52;99688.78;2091060;28;1091;-72
2021/03/13 01:45:15;;;;;;;;;;;;;;;21.02;49.42;99684.31;2090135;28;1644;-72
2021/03/13 01:46:15;;;;;;;;;;;;;;;21.02;49.41;99681.47;2090728;28;1386;-72
2021/03/13 01:47:16;;;;;;;;;;;;;;;21.02;49.41;99678.63;2091108;28;1079;-73
2021/03/13 01:48:17;;;;;;;;;;;;;;;21.01;49.37;99674.97;2090186;28;1777;-72
2021/03/13 01:49:18;;;;;;;;;;;;;;;21.02;49.38;99678.63;2090882;28;1052;-72
2021/03/13 01:50:19;;;;;;;;;;;;;;;21.01;49.70;99672.13;2090369;28;1727;-72
2021/03/13 01:51:20;;;;;;;;;;;;;;;21.03;49.36;99677.41;2090403;28;2074;-73
2021/03/13 01:52:20;;;;;;;;;;;;;;;21.02;49.54;99675.78;2090247;28;1743;-73
2021/03/13 01:53:21;;;;;;;;;;;;;;;21.01;49.48;99674.16;2090862;28;2145;-75
2021/03/13 01:54:22;;;;;;;;;;;;;;;21.02;49.50;99678.63;2090561;28;1973;-73
2021/03/13 01:55:23;;;;;;;;;;;;;;;21.01;49.84;99672.13;2090455;28;1650;-73
2021/03/13 01:56:23;;;;;;;;;;;;;;;21.02;49.59;99675.78;2090986;28;1274;-73
2021/03/13 01:57:24;;;;;;;;;;;;;;;21.02;49.62;99673.75;2090743;28;1659;-76
2021/03/13 01:58:25;;;;;;;;;;;;;;;21.02;49.64;99673.75;2090888;28;1150;-75
2021/03/13 01:59:26;;;;;;;;;;;;;;;21.02;49.51;99670.09;2090754;28;1728;-74
2021/03/13 02:00:26;;;;;;;;;;;;;;;21.02;49.63;99670.09;2090386;28;1709;-72
2021/03/13 02:01:27;;;;;;;;;;;;;;;21.02;49.59;99678.63;2090812;28;1983;-71
2021/03/13 02:02:28;;;;;;;;;;;;;;;21.02;49.58;99675.78;2090818;28;1641;-72
2021/03/13 02:03:29;;;;;;;;;;;;;;;21.01;49.69;99672.13;2090969;28;1056;-72
2021/03/13 02:04:30;;;;;;;;;;;;;;;21.02;49.63;99675.78;2090214;28;1676;-74
2021/03/13 02:05:31;;;;;;;;;;;;;;;21.02;49.64;99667.25;2089773;28;1771;-74
2021/03/13 02:06:31;;;;;;;;;;;;;;;21.02;49.59;99673.75;2090202;28;1849;-74
2021/03/13 02:07:32;;;;;;;;;;;;;;;21.03;49.62;99669.69;2090297;28;1664;-74
2021/03/13 02:08:33;;;;;;;;;;;;;;;21.02;49.69;99670.09;2090477;28;1800;-74
2021/03/13 02:09:33;;;;;;;;;;;;;;;21.02;49.56;99668.06;2090477;28;1787;-74
2021/03/13 02:10:34;;;;;;;;;;;;;;;21.02;49.72;99672.94;2089301;28;1709;-74
2021/03/13 02:11:35;;;;;;;;;;;;;;;21.02;49.71;99670.09;2088284;28;1783;-74
2021/03/13 02:12:36;;;;;;;;;;;;;;;21.02;49.64;99678.63;2089737;28;1794;-74
2021/03/13 02:13:36;;;;;;;;;;;;;;;21.01;49.66;99674.97;2089829;28;1779;-73
2021/03/13 02:14:37;;;;;;;;;;;;;;;21.01;49.65;99677.00;2090655;28;1914;-74
2021/03/13 02:15:38;;;;;;;;;;;;;;;21.01;49.53;99682.69;2090225;28;1772;-75
2021/03/13 02:16:39;;;;;;;;;;;;;;;21.02;49.58;99672.94;2088873;28;1800;-74
2021/03/13 02:17:40;;;;;;;;;;;;;;;21.01;49.66;99671.31;2090204;28;1927;-74
2021/03/13 02:18:41;;;;;;;;;;;;;;;21.01;49.70;99677.81;2089878;28;1836;-74
2021/03/13 02:19:42;;;;;;;;;;;;;;;21.01;49.52;99677.00;2090850;28;1072;-74
2021/03/13 02:20:43;;;;;;;;;;;;;;;21.00;49.52;99676.16;2081238;28;2087;-74
2021/03/13 02:21:44;;;;;;;;;;;;;;;21.01;49.64;99677.00;2090511;28;1278;-74
2021/03/13 02:22:44;;;;;;;;;;;;;;;21.00;49.58;99669.66;2090191;28;1732;-74
2021/03/13 02:23:45;;;;;;;;;;;;;;;21.00;49.41;99667.63;2090147;28;1830;-74
2021/03/13 02:24:46;;;;;;;;;;;;;;;21.01;49.51;99677.00;2090265;28;1815;-74
2021/03/13 02:25:46;;;;;;;;;;;;;;;21.01;49.67;99671.31;2090344;28;1791;-74
2021/03/13 02:26:47;;;;;;;;;;;;;;;21.00;49.65;99669.66;2087651;28;1877;-74
2021/03/13 02:27:48;;;;;;;;;;;;;;;21.00;49.46;99672.50;2087601;28;1873;-74
2021/03/13 02:28:49;;;;;;;;;;;;;;;21.00;49.56;99670.47;2084985;28;1709;-75
2021/03/13 02:29:49;;;;;;;;;;;;;;;21.00;49.60;99675.34;2087894;28;1854;-74
2021/03/13 02:30:51;;;;;;;;;;;;;;;20.99;49.39;99668.84;2084949;28;1598;-74
2021/03/13 02:31:52;;;;;;;;;;;;;;;20.99;49.66;99666.00;2090058;28;1080;-74
2021/03/13 02:32:54;;;;;;;;;;;;;;;20.99;49.60;99683.03;2090113;28;1716;-74
2021/03/13 02:33:55;;;;;;;;;;;;;;;21.00;49.42;99681.84;2088889;28;2125;-73
2021/03/13 02:34:56;;;;;;;;;;;;;;;21.00;49.64;99675.34;2090452;28;2082;-74
2021/03/13 02:35:57;;;;;;;;;;;;;;;21.00;49.63;99669.66;2089629;28;1642;-74
2021/03/13 02:36:57;;;;;;;;;;;;;;;20.99;49.64;99674.53;2087090;28;1759;-74
2021/03/13 02:37:58;;;;;;;;;;;;;;;21.00;49.66;99669.66;2090265;28;1756;-74
2021/03/13 02:38:59;;;;;;;;;;;;;;;21.01;49.53;99674.16;2088266;28;3275;-73
2021/03/13 02:40:00;;;;;;;;;;;;;;;20.99;49.49;99674.53;2089411;28;1822;-73
2021/03/13 02:41:00;;;;;;;;;;;;;;;20.99;49.51;99671.69;2089557;28;1742;-73
2021/03/13 02:42:02;;;;;;;;;;;;;;;20.99;49.40;99670.88;2089712;28;1847;-74
2021/03/13 02:43:02;;;;;;;;;;;;;;;20.99;49.57;99671.69;2089412;28;1776;-74
2021/03/13 02:44:04;;;;;;;;;;;;;;;21.00;49.43;99669.66;2080371;28;1690;-74
2021/03/13 02:45:04;;;;;;;;;;;;;;;20.99;49.45;99663.16;2081152;28;2265;-74
2021/03/13 02:46:05;;;;;;;;;;;;;;;20.99;49.71;99663.16;2089814;28;1737;-75
2021/03/13 02:47:06;;;;;;;;;;;;;;;20.99;49.50;99671.69;2090863;28;1822;-74
2021/03/13 02:48:07;;;;;;;;;;;;;;;20.99;49.50;99657.47;2090671;28;1202;-74
2021/03/13 02:49:08;;;;;;;;;;;;;;;20.98;49.64;99667.19;2089623;28;1617;-74
2021/03/13 02:50:09;;;;;;;;;;;;;;;21.00;49.43;99661.13;2090383;28;2042;-74
2021/03/13 02:51:10;;;;;;;;;;;;;;;21.00;49.47;99656.25;2090410;28;1216;-74
2021/03/13 02:52:11;;;;;;;;;;;;;;;21.00;49.38;99661.13;2090014;28;1811;-74
2021/03/13 02:53:12;;;;;;;;;;;;;;;20.99;49.51;99659.50;2089174;28;1593;-74
2021/03/13 02:54:13;;;;;;;;;;;;;;;21.00;49.38;99663.97;2090264;28;1914;-75
2021/03/13 02:55:14;;;;;;;;;;;;;;;20.98;49.39;99655.81;2094991;28;1671;-75
2021/03/13 02:56:15;;;;;;;;;;;;;;;20.99;49.47;99656.66;2089395;28;1783;-74
2021/03/13 02:57:16;;;;;;;;;;;;;;;20.99;49.34;99668.84;2090447;28;1301;-75
2021/03/13 02:58:17;;;;;;;;;;;;;;;20.98;49.35;99667.19;2090138;28;1780;-76
2021/03/13 02:59:20;;;;;;;;;;;;;;;20.99;49.40;99656.66;2088938;28;1803;-75
2021/03/13 03:00:38;;;;;;;;;;;;;;;20.99;49.51;99665.16;2086292;28;1838;-75
2021/03/13 03:01:38;;;;;;;;;;;;;;;20.99;49.45;99654.63;2089187;28;1680;-75
2021/03/13 03:02:39;;;;;;;;;;;;;;;20.99;49.43;99663.16;2089591;28;1830;-76
2021/03/13 03:03:40;;;;;;;;;;;;;;;20.98;49.42;99664.34;2089888;28;1697;-76
2021/03/13 03:04:41;;;;;;;;;;;;;;;20.98;49.30;99667.19;2090372;28;1072;-76
2021/03/13 03:05:42;;;;;;;;;;;;;;;20.98;49.50;99667.19;2089866;28;1814;-74
2021/03/13 03:06:43;;;;;;;;;;;;;;;20.98;49.39;99667.19;2089754;28;1583;-74
2021/03/13 03:07:44;;;;;;;;;;;;;;;20.99;49.53;99668.03;2089959;28;1974;-73
2021/03/13 03:08:44;;;;;;;;;;;;;;;20.98;49.55;99667.19;2089610;28;1688;-73
2021/03/13 03:09:45;;;;;;;;;;;;;;;20.99;49.64;99668.84;2090002;28;1720;-73
2021/03/13 03:10:46;;;;;;;;;;;;;;;20.99;49.41;99668.84;2090090;28;1803;-74
2021/03/13 03:11:46;;;;;;;;;;;;;;;21.00;49.68;99659.09;2089743;28;1811;-74
2021/03/13 03:12:48;;;;;;;;;;;;;;;21.01;49.72;99659.94;2090098;28;2168;-74
2021/03/13 03:13:48;;;;;;;;;;;;;;;21.01;49.77;99666.44;2090100;28;1137;-74
2021/03/13 03:14:49;;;;;;;;;;;;;;;21.01;49.74;99665.63;2089657;28;1899;-74
2021/03/13 03:15:50;;;;;;;;;;;;;;;21.02;49.67;99667.25;2090194;28;1866;-72
2021/03/13 03:16:51;;;;;;;;;;;;;;;21.02;49.98;99668.06;2089167;28;2267;-74
2021/03/13 03:17:52;;;;;;;;;;;;;;;21.01;49.79;99674.16;2089429;28;1574;-73
2021/03/13 03:18:53;;;;;;;;;;;;;;;21.02;50.01;99673.75;2090530;28;1084;-74
2021/03/13 03:19:54;;;;;;;;;;;;;;;21.01;50.01;99668.47;2090202;28;1125;-74
2021/03/13 03:20:55;;;;;;;;;;;;;;;21.02;49.97;99670.91;2089429;28;1688;-73
2021/03/13 03:21:56;;;;;;;;;;;;;;;21.02;50.01;99667.25;2087862;28;3604;-73
2021/03/13 03:22:56;;;;;;;;;;;;;;;21.02;49.98;99667.25;2088740;28;1808;-74
2021/03/13 03:23:57;;;;;;;;;;;;;;;21.02;50.13;99672.94;2089850;28;1716;-74
2021/03/13 03:24:58;;;;;;;;;;;;;;;21.02;50.10;99661.56;2089658;28;1651;-74
2021/03/13 03:25:59;;;;;;;;;;;;;;;21.02;50.06;99667.25;2090603;28;1079;-74
2021/03/13 03:26:59;;;;;;;;;;;;;;;21.02;50.12;99667.25;2088828;28;1824;-74
2021/03/13 03:28:00;;;;;;;;;;;;;;;21.03;50.12;99663.19;2089428;28;1790;-74
2021/03/13 03:29:01;;;;;;;;;;;;;;;21.02;50.06;99665.22;2089914;28;1697;-74
2021/03/13 03:30:02;;;;;;;;;;;;;;;21.03;50.08;99669.69;2089498;28;1709;-74
2021/03/13 03:31:03;;;;;;;;;;;;;;;21.03;50.16;99664.00;2089893;28;1779;-74
2021/03/13 03:32:04;;;;;;;;;;;;;;;21.02;50.09;99655.88;2089831;28;1564;-75
2021/03/13 03:33:05;;;;;;;;;;;;;;;21.03;50.03;99658.31;2089188;28;1796;-74
2021/03/13 03:34:06;;;;;;;;;;;;;;;21.03;50.07;99657.50;2090302;28;2010;-74
2021/03/13 03:35:07;;;;;;;;;;;;;;;21.03;50.17;99646.13;2089470;28;1828;-73
2021/03/13 03:36:07;;;;;;;;;;;;;;;21.03;50.16;99648.97;2089463;28;1760;-73
2021/03/13 03:37:08;;;;;;;;;;;;;;;21.03;50.21;99652.63;2089777;28;1865;-74
2021/03/13 03:38:09;;;;;;;;;;;;;;;21.03;50.10;99641.25;2088797;28;1779;-73
2021/03/13 03:39:10;;;;;;;;;;;;;;;21.03;50.09;99646.94;2089486;28;1825;-74
2021/03/13 03:40:10;;;;;;;;;;;;;;;21.02;49.99;99645.31;2087906;28;1772;-73
2021/03/13 03:41:11;;;;;;;;;;;;;;;21.03;50.05;99643.28;2087179;28;1679;-73
2021/03/13 03:42:13;;;;;;;;;;;;;;;21.04;50.03;99644.94;2087190;28;1748;-74
2021/03/13 03:43:14;;;;;;;;;;;;;;;21.03;50.09;99638.41;2089941;28;1597;-73
2021/03/13 03:44:15;;;;;;;;;;;;;;;21.04;50.13;99642.09;2089140;28;1823;-73
2021/03/13 03:45:15;;;;;;;;;;;;;;;21.04;50.14;99636.41;2088961;28;1709;-73
2021/03/13 03:46:16;;;;;;;;;;;;;;;21.04;50.13;99633.56;2090389;28;1087;-74
2021/03/13 03:47:17;;;;;;;;;;;;;;;21.04;50.07;99633.56;2090173;28;2102;-73
2021/03/13 03:48:18;;;;;;;;;;;;;;;21.04;50.22;99639.25;2089264;28;1757;-73
2021/03/13 03:49:19;;;;;;;;;;;;;;;21.03;50.02;99631.91;2089720;28;1617;-73
2021/03/13 03:50:19;;;;;;;;;;;;;;;21.03;49.98;99635.56;2090137;28;1114;-73
2021/03/13 03:51:20;;;;;;;;;;;;;;;21.04;50.01;99636.41;2089762;28;1697;-73
2021/03/13 03:52:21;;;;;;;;;;;;;;;21.04;50.20;99642.09;2089871;28;1282;-73
2021/03/13 03:53:22;;;;;;;;;;;;;;;21.03;50.05;99638.41;2089797;28;1752;-73
2021/03/13 03:54:23;;;;;;;;;;;;;;;21.04;50.16;99637.22;2089732;28;1914;-73
2021/03/13 03:55:23;;;;;;;;;;;;;;;21.04;50.02;99630.72;2089550;28;1943;-73
2021/03/13 03:56:24;;;;;;;;;;;;;;;21.04;49.94;99630.72;2090124;28;1139;-73
2021/03/13 03:57:25;;;;;;;;;;;;;;;21.04;50.12;99636.41;2089654;28;1794;-74
2021/03/13 03:58:25;;;;;;;;;;;;;;;21.04;50.04;99642.91;2089687;28;1721;-73
2021/03/13 03:59:26;;;;;;;;;;;;;;;21.04;50.05;99634.38;2089667;28;1834;-73
2021/03/13 04:00:27;;;;;;;;;;;;;;;21.04;49.97;99637.22;2088972;28;1739;-73
2021/03/13 04:01:28;;;;;;;;;;;;;;;21.04;50.04;99642.09;2090037;28;1299;-73
2021/03/13 04:02:28;;;;;;;;;;;;;;;21.04;49.93;99640.06;2089818;28;1547;-73
2021/03/13 04:03:29;;;;;;;;;;;;;;;21.05;49.99;99638.88;2088536;28;1586;-73
2021/03/13 04:04:30;;;;;;;;;;;;;;;21.03;49.90;99632.72;2090129;28;1175;-73
2021/03/13 04:05:31;;;;;;;;;;;;;;;21.04;49.88;99640.06;2089708;28;1759;-73
2021/03/13 04:06:32;;;;;;;;;;;;;;;21.04;49.94;99640.06;2090026;28;1064;-73
2021/03/13 04:07:33;;;;;;;;;;;;;;;21.04;49.96;99642.91;2089721;28;3390;-73
2021/03/13 04:08:33;;;;;;;;;;;;;;;21.04;49.93;99642.09;2088075;28;2460;-74
2021/03/13 04:09:34;;;;;;;;;;;;;;;21.04;50.20;99637.22;2089619;28;1736;-73
2021/03/13 04:10:35;;;;;;;;;;;;;;;21.04;49.97;99633.56;2088613;28;1732;-73
2021/03/13 04:11:36;;;;;;;;;;;;;;;21.05;49.93;99632.34;2088503;28;2097;-73
2021/03/13 04:12:36;;;;;;;;;;;;;;;21.03;49.85;99634.75;2089468;28;1829;-73
2021/03/13 04:13:37;;;;;;;;;;;;;;;21.04;49.81;99627.88;2087672;28;1717;-74
2021/03/13 04:14:38;;;;;;;;;;;;;;;21.03;49.84;99632.72;2090830;28;1910;-74
2021/03/13 04:15:39;;;;;;;;;;;;;;;21.04;49.84;99630.72;2091500;28;1135;-73
2021/03/13 04:16:39;;;;;;;;;;;;;;;21.03;49.92;99623.38;2090851;28;1767;-73
2021/03/13 04:17:40;;;;;;;;;;;;;;;21.03;49.82;99631.91;2091332;28;1730;-75
2021/03/13 04:18:41;;;;;;;;;;;;;;;21.00;49.70;99627.81;2091205;28;1681;-75
2021/03/13 04:19:42;;;;;;;;;;;;;;;21.02;49.84;99630.28;2090970;28;1765;-74
2021/03/13 04:20:43;;;;;;;;;;;;;;;21.01;49.94;99626.63;2091558;28;1135;-74
2021/03/13 04:21:44;;;;;;;;;;;;;;;21.01;49.93;99626.63;2091665;28;1107;-74
2021/03/13 04:22:45;;;;;;;;;;;;;;;21.01;49.83;99631.50;2090868;28;1648;-74
2021/03/13 04:23:45;;;;;;;;;;;;;;;21.01;49.91;99628.66;2090696;28;1701;-74
2021/03/13 04:24:46;;;;;;;;;;;;;;;21.01;49.84;99628.66;2091333;28;1653;-75
2021/03/13 04:25:47;;;;;;;;;;;;;;;21.01;49.85;99637.19;2090950;28;1717;-76
2021/03/13 04:26:48;;;;;;;;;;;;;;;21.00;49.91;99624.97;2085098;28;1055;-75
2021/03/13 04:27:48;;;;;;;;;;;;;;;21.00;49.95;99627.00;2088878;28;1756;-75
2021/03/13 04:28:49;;;;;;;;;;;;;;;21.01;49.80;99634.34;2090186;28;2424;-75
2021/03/13 04:29:50;;;;;;;;;;;;;;;21.00;49.76;99627.00;2088108;28;2291;-75
2021/03/13 04:30:51;;;;;;;;;;;;;;;21.00;nan;99629.84;2090943;28;1775;-75
2021/03/13 04:31:52;;;;;;;;;;;;;;;21.00;49.90;99633.50;2090115;28;1792;-75
2021/03/13 04:32:53;;;;;;;;;;;;;;;21.01;49.80;99628.66;2091300;28;1653;-75
2021/03/13 04:33:54;;;;;;;;;;;;;;;21.00;49.68;99629.84;2089755;28;1680;-75
2021/03/13 04:34:55;;;;;;;;;;;;;;;21.00;49.91;99627.00;2090522;28;2136;-75
2021/03/13 04:35:55;;;;;;;;;;;;;;;20.99;49.74;99623.34;2091144;28;1967;-75
2021/03/13 04:36:56;;;;;;;;;;;;;;;21.00;49.74;99632.69;2090783;28;1794;-75
2021/03/13 04:37:57;;;;;;;;;;;;;;;20.99;49.76;99623.34;2090374;28;1775;-75
2021/03/13 04:38:58;;;;;;;;;;;;;;;20.98;49.73;99616.03;2091095;28;1708;-75
2021/03/13 04:39:59;;;;;;;;;;;;;;;20.99;49.66;99620.50;2091518;28;1176;-73
2021/03/13 04:41:00;;;;;;;;;;;;;;;21.00;49.71;99627.00;2090008;28;1917;-73
2021/03/13 04:42:00;;;;;;;;;;;;;;;20.99;49.79;99626.19;2090479;28;1827;-73
2021/03/13 04:43:01;;;;;;;;;;;;;;;21.00;49.95;99624.16;2090788;28;1817;-73
2021/03/13 04:44:02;;;;;;;;;;;;;;;21.00;49.84;99618.47;2090977;28;1725;-73
2021/03/13 04:45:03;;;;;;;;;;;;;;;20.99;49.69;99622.53;2089489;28;2015;-73
2021/03/13 04:46:04;;;;;;;;;;;;;;;20.98;49.84;99616.03;2090803;28;1721;-73
2021/03/13 04:47:05;;;;;;;;;;;;;;;20.99;49.72;99616.84;2090953;28;1755;-73
2021/03/13 04:48:06;;;;;;;;;;;;;;;20.99;49.90;99614.81;2091663;28;1107;-73
2021/03/13 04:49:07;;;;;;;;;;;;;;;21.00;49.85;99609.94;2090594;28;1359;-73
2021/03/13 04:50:08;;;;;;;;;;;;;;;20.99;49.70;99611.16;2090430;28;1845;-73
2021/03/13 04:51:08;;;;;;;;;;;;;;;20.98;49.78;99607.50;2090850;28;1684;-74
2021/03/13 04:52:09;;;;;;;;;;;;;;;20.99;49.82;99606.28;2090760;28;1749;-76
2021/03/13 04:53:10;;;;;;;;;;;;;;;20.99;49.86;99608.31;2091045;28;1812;-75
2021/03/13 04:54:13;;;;;;;;;;;;;;;20.98;49.79;99604.66;2090868;28;1354;-76
2021/03/13 04:55:14;;;;;;;;;;;;;;;21.00;49.69;99607.09;2091220;28;1984;-76
2021/03/13 04:56:14;;;;;;;;;;;;;;;20.97;49.83;99600.16;2089610;28;1759;-76
2021/03/13 04:57:16;;;;;;;;;;;;;;;20.98;49.63;99604.66;2091167;28;1767;-76
2021/03/13 04:58:16;;;;;;;;;;;;;;;20.98;49.74;99598.97;2091076;28;2250;-76
2021/03/13 04:59:17;;;;;;;;;;;;;;;20.98;49.67;99601.81;2091736;28;1847;-76
2021/03/13 05:00:18;;;;;;;;;;;;;;;20.98;49.72;99598.97;2090440;28;1763;-76
2021/03/13 05:01:19;;;;;;;;;;;;;;;20.99;49.84;99596.94;2090803;28;1363;-76
2021/03/13 05:02:19;;;;;;;;;;;;;;;20.98;49.89;99596.13;2090971;28;1727;-76
2021/03/13 05:03:20;;;;;;;;;;;;;;;20.98;49.85;99598.97;2090065;28;1787;-74
2021/03/13 05:04:21;;;;;;;;;;;;;;;20.98;49.73;99593.28;2090037;28;1917;-74
2021/03/13 05:05:22;;;;;;;;;;;;;;;20.98;49.66;99587.59;2090595;28;1795;-74
2021/03/13 05:06:23;;;;;;;;;;;;;;;20.98;49.81;99592.44;2091295;28;1095;-74
2021/03/13 05:07:23;;;;;;;;;;;;;;;20.98;49.69;99586.75;2091198;28;2149;-74
2021/03/13 05:08:24;;;;;;;;;;;;;;;20.98;49.57;99581.91;2091079;28;1824;-73
2021/03/13 05:09:25;;;;;;;;;;;;;;;20.97;49.72;99585.94;2090964;28;2070;-73
2021/03/13 05:10:26;;;;;;;;;;;;;;;20.98;49.68;99587.59;2090895;28;1799;-73
2021/03/13 05:11:26;;;;;;;;;;;;;;;20.98;49.83;99583.91;2091148;28;1111;-73
2021/03/13 05:12:27;;;;;;;;;;;;;;;20.98;49.58;99583.91;2091305;28;1060;-73
2021/03/13 05:13:28;;;;;;;;;;;;;;;20.97;49.60;99591.63;2090549;28;1802;-73
2021/03/13 05:14:29;;;;;;;;;;;;;;;20.97;49.67;99591.63;2090519;28;1918;-73
2021/03/13 05:15:29;;;;;;;;;;;;;;;20.97;49.71;99582.28;2090793;28;1633;-73
2021/03/13 05:16:30;;;;;;;;;;;;;;;20.98;49.77;99581.91;2090882;28;1713;-73
2021/03/13 05:17:31;;;;;;;;;;;;;;;20.97;49.63;99580.25;2090463;28;1629;-73
2021/03/13 05:18:32;;;;;;;;;;;;;;;20.97;49.76;99583.09;2090949;28;1696;-73
2021/03/13 05:19:33;;;;;;;;;;;;;;;20.98;49.62;99581.06;2090793;28;1384;-73
2021/03/13 05:20:34;;;;;;;;;;;;;;;20.97;49.77;99579.44;2090097;28;1763;-74
2021/03/13 05:21:35;;;;;;;;;;;;;;;20.97;49.61;99582.28;2091103;28;1129;-73